sensor_id;sensor_type;location;lat;lon;timestamp;temperature;humidity
2867;DHT22;1441;48.886;8.728;2022-08-19T00:02:23;21.50;84.10
2867;DHT22;1441;48.886;8.728;2022-08-19T00:04:49;21.50;84.10
2867;DHT22;1441;48.886;8.728;2022-08-19T00:07:18;21.50;84.10
2867;DHT22;1441;48.886;8.728;2022-08-19T00:09:44;21.50;84.30
2867;DHT22;1441;48.886;8.728;2022-08-19T00:12:10;21.50;84.70
2867;DHT22;1441;48.886;8.728;2022-08-19T00:14:36;21.40;84.70
2867;DHT22;1441;48.886;8.728;2022-08-19T00:17:05;21.40;84.80
2867;DHT22;1441;48.886;8.728;2022-08-19T00:19:32;21.40;84.70
2867;DHT22;1441;48.886;8.728;2022-08-19T00:21:58;21.40;84.90
2867;DHT22;1441;48.886;8.728;2022-08-19T00:24:25;21.40;84.80
2867;DHT22;1441;48.886;8.728;2022-08-19T00:26:51;21.40;84.80
2867;DHT22;1441;48.886;8.728;2022-08-19T00:29:19;21.40;85.10
2867;DHT22;1441;48.886;8.728;2022-08-19T00:31:45;21.30;85.10
2867;DHT22;1441;48.886;8.728;2022-08-19T00:34:11;21.30;85.20
2867;DHT22;1441;48.886;8.728;2022-08-19T00:36:37;21.30;85.00
2867;DHT22;1441;48.886;8.728;2022-08-19T00:39:04;21.30;85.00
2867;DHT22;1441;48.886;8.728;2022-08-19T00:41:30;21.30;85.40
2867;DHT22;1441;48.886;8.728;2022-08-19T00:46:27;21.30;85.40
2867;DHT22;1441;48.886;8.728;2022-08-19T00:48:53;21.30;85.30
2867;DHT22;1441;48.886;8.728;2022-08-19T00:51:19;21.30;85.40
2867;DHT22;1441;48.886;8.728;2022-08-19T00:53:45;21.30;85.50
2867;DHT22;1441;48.886;8.728;2022-08-19T00:56:10;21.30;85.50
2867;DHT22;1441;48.886;8.728;2022-08-19T00:58:36;21.30;85.60
2867;DHT22;1441;48.886;8.728;2022-08-19T01:01:04;21.30;85.60
2867;DHT22;1441;48.886;8.728;2022-08-19T01:03:30;21.30;85.70
2867;DHT22;1441;48.886;8.728;2022-08-19T01:05:55;21.30;85.50
2867;DHT22;1441;48.886;8.728;2022-08-19T01:08:22;21.20;85.80
2867;DHT22;1441;48.886;8.728;2022-08-19T01:10:56;21.20;85.80
2867;DHT22;1441;48.886;8.728;2022-08-19T01:13:25;21.20;85.90
2867;DHT22;1441;48.886;8.728;2022-08-19T01:16:04;21.20;86.40
2867;DHT22;1441;48.886;8.728;2022-08-19T01:18:30;21.20;86.30
2867;DHT22;1441;48.886;8.728;2022-08-19T01:21:02;21.10;86.70
2867;DHT22;1441;48.886;8.728;2022-08-19T01:23:28;21.10;86.60
2867;DHT22;1441;48.886;8.728;2022-08-19T01:26:12;21.10;86.50
2867;DHT22;1441;48.886;8.728;2022-08-19T01:28:39;21.10;86.30
2867;DHT22;1441;48.886;8.728;2022-08-19T01:31:07;21.10;86.70
2867;DHT22;1441;48.886;8.728;2022-08-19T01:33:33;21.10;86.80
2867;DHT22;1441;48.886;8.728;2022-08-19T01:36:13;21.10;86.80
2867;DHT22;1441;48.886;8.728;2022-08-19T01:38:42;21.00;87.10
2867;DHT22;1441;48.886;8.728;2022-08-19T01:41:09;21.00;86.50
2867;DHT22;1441;48.886;8.728;2022-08-19T01:43:34;21.00;87.00
2867;DHT22;1441;48.886;8.728;2022-08-19T01:46:00;21.00;87.20
2867;DHT22;1441;48.886;8.728;2022-08-19T01:48:27;21.00;87.60
2867;DHT22;1441;48.886;8.728;2022-08-19T01:50:57;21.00;87.80
2867;DHT22;1441;48.886;8.728;2022-08-19T01:53:23;21.00;88.20
2867;DHT22;1441;48.886;8.728;2022-08-19T01:55:48;20.90;88.30
2867;DHT22;1441;48.886;8.728;2022-08-19T01:58:20;20.90;88.40
2867;DHT22;1441;48.886;8.728;2022-08-19T02:00:48;20.90;88.40
2867;DHT22;1441;48.886;8.728;2022-08-19T02:03:14;20.90;88.50
2867;DHT22;1441;48.886;8.728;2022-08-19T02:05:41;21.00;88.30
2867;DHT22;1441;48.886;8.728;2022-08-19T02:08:08;20.90;88.50
2867;DHT22;1441;48.886;8.728;2022-08-19T02:10:33;20.90;88.50
2867;DHT22;1441;48.886;8.728;2022-08-19T02:13:03;20.90;88.80
2867;DHT22;1441;48.886;8.728;2022-08-19T02:15:28;20.80;88.70
2867;DHT22;1441;48.886;8.728;2022-08-19T02:17:54;20.80;89.30
2867;DHT22;1441;48.886;8.728;2022-08-19T02:20:19;20.80;89.30
2867;DHT22;1441;48.886;8.728;2022-08-19T02:22:45;20.80;89.30
2867;DHT22;1441;48.886;8.728;2022-08-19T02:25:13;20.80;89.40
2867;DHT22;1441;48.886;8.728;2022-08-19T02:27:40;20.80;89.00
2867;DHT22;1441;48.886;8.728;2022-08-19T02:30:07;20.80;89.00
2867;DHT22;1441;48.886;8.728;2022-08-19T02:32:33;20.80;89.30
2867;DHT22;1441;48.886;8.728;2022-08-19T02:34:59;20.80;89.40
2867;DHT22;1441;48.886;8.728;2022-08-19T02:37:25;20.80;89.50
2867;DHT22;1441;48.886;8.728;2022-08-19T02:40:09;20.70;89.40
2867;DHT22;1441;48.886;8.728;2022-08-19T02:42:35;20.80;89.50
2867;DHT22;1441;48.886;8.728;2022-08-19T02:45:00;20.70;89.00
2867;DHT22;1441;48.886;8.728;2022-08-19T02:47:26;20.70;89.30
2867;DHT22;1441;48.886;8.728;2022-08-19T02:49:51;20.70;89.40
2867;DHT22;1441;48.886;8.728;2022-08-19T02:52:17;20.70;89.30
2867;DHT22;1441;48.886;8.728;2022-08-19T02:54:43;20.70;89.50
2867;DHT22;1441;48.886;8.728;2022-08-19T02:57:09;20.60;90.00
2867;DHT22;1441;48.886;8.728;2022-08-19T02:59:35;20.60;89.80
2867;DHT22;1441;48.886;8.728;2022-08-19T03:02:00;20.70;89.60
2867;DHT22;1441;48.886;8.728;2022-08-19T03:04:26;20.70;89.60
2867;DHT22;1441;48.886;8.728;2022-08-19T03:06:52;20.60;89.20
2867;DHT22;1441;48.886;8.728;2022-08-19T03:09:19;20.60;90.00
2867;DHT22;1441;48.886;8.728;2022-08-19T03:11:46;20.50;90.30
2867;DHT22;1441;48.886;8.728;2022-08-19T03:14:12;20.50;90.50
2867;DHT22;1441;48.886;8.728;2022-08-19T03:16:44;20.50;90.60
2867;DHT22;1441;48.886;8.728;2022-08-19T03:19:10;20.50;90.80
2867;DHT22;1441;48.886;8.728;2022-08-19T03:21:36;20.40;90.80
2867;DHT22;1441;48.886;8.728;2022-08-19T03:24:06;20.40;90.90
2867;DHT22;1441;48.886;8.728;2022-08-19T03:26:32;20.40;90.90
2867;DHT22;1441;48.886;8.728;2022-08-19T03:29:02;20.40;91.10
2867;DHT22;1441;48.886;8.728;2022-08-19T03:31:28;20.40;91.50
2867;DHT22;1441;48.886;8.728;2022-08-19T03:33:54;20.30;91.50
2867;DHT22;1441;48.886;8.728;2022-08-19T03:36:23;20.30;91.80
2867;DHT22;1441;48.886;8.728;2022-08-19T03:38:52;20.30;92.00
2867;DHT22;1441;48.886;8.728;2022-08-19T03:41:22;20.30;92.20
2867;DHT22;1441;48.886;8.728;2022-08-19T03:43:48;20.30;92.40
2867;DHT22;1441;48.886;8.728;2022-08-19T03:46:21;20.30;92.60
2867;DHT22;1441;48.886;8.728;2022-08-19T03:48:48;20.30;92.90
2867;DHT22;1441;48.886;8.728;2022-08-19T03:51:36;20.30;93.20
2867;DHT22;1441;48.886;8.728;2022-08-19T03:54:04;20.20;93.40
2867;DHT22;1441;48.886;8.728;2022-08-19T03:56:32;20.20;93.40
2867;DHT22;1441;48.886;8.728;2022-08-19T03:58:58;20.30;93.40
2867;DHT22;1441;48.886;8.728;2022-08-19T04:01:26;20.20;93.40
2867;DHT22;1441;48.886;8.728;2022-08-19T04:03:53;20.30;93.90
2867;DHT22;1441;48.886;8.728;2022-08-19T04:06:31;20.20;93.90
2867;DHT22;1441;48.886;8.728;2022-08-19T04:08:59;20.20;94.20
2867;DHT22;1441;48.886;8.728;2022-08-19T04:11:30;20.10;94.30
2867;DHT22;1441;48.886;8.728;2022-08-19T04:13:56;20.10;94.40
2867;DHT22;1441;48.886;8.728;2022-08-19T04:16:24;20.10;94.20
2867;DHT22;1441;48.886;8.728;2022-08-19T04:18:54;20.10;94.40
2867;DHT22;1441;48.886;8.728;2022-08-19T04:21:26;20.10;94.70
2867;DHT22;1441;48.886;8.728;2022-08-19T04:23:52;20.10;94.50
2867;DHT22;1441;48.886;8.728;2022-08-19T04:26:21;20.10;94.50
2867;DHT22;1441;48.886;8.728;2022-08-19T04:28:47;20.20;93.90
2867;DHT22;1441;48.886;8.728;2022-08-19T04:31:19;20.20;93.70
2867;DHT22;1441;48.886;8.728;2022-08-19T04:33:44;20.20;93.90
2867;DHT22;1441;48.886;8.728;2022-08-19T04:36:18;20.20;93.20
2867;DHT22;1441;48.886;8.728;2022-08-19T04:38:46;20.20;93.40
2867;DHT22;1441;48.886;8.728;2022-08-19T04:41:12;20.20;94.10
2867;DHT22;1441;48.886;8.728;2022-08-19T04:43:56;20.20;93.70
2867;DHT22;1441;48.886;8.728;2022-08-19T04:46:22;20.20;93.70
2867;DHT22;1441;48.886;8.728;2022-08-19T04:48:47;20.20;93.70
2867;DHT22;1441;48.886;8.728;2022-08-19T04:51:13;20.20;92.70
2867;DHT22;1441;48.886;8.728;2022-08-19T04:53:40;20.30;92.90
2867;DHT22;1441;48.886;8.728;2022-08-19T04:56:12;20.30;93.90
2867;DHT22;1441;48.886;8.728;2022-08-19T04:58:40;20.20;93.40
2867;DHT22;1441;48.886;8.728;2022-08-19T05:01:09;20.20;93.40
2867;DHT22;1441;48.886;8.728;2022-08-19T05:03:36;20.30;92.80
2867;DHT22;1441;48.886;8.728;2022-08-19T05:06:07;20.30;92.90
2867;DHT22;1441;48.886;8.728;2022-08-19T05:08:34;20.30;92.70
2867;DHT22;1441;48.886;8.728;2022-08-19T05:11:08;20.20;92.60
2867;DHT22;1441;48.886;8.728;2022-08-19T05:13:34;20.30;92.80
2867;DHT22;1441;48.886;8.728;2022-08-19T05:16:00;20.30;93.00
2867;DHT22;1441;48.886;8.728;2022-08-19T05:18:25;20.30;93.40
2867;DHT22;1441;48.886;8.728;2022-08-19T05:21:12;20.30;93.00
2867;DHT22;1441;48.886;8.728;2022-08-19T05:23:56;20.30;92.70
2867;DHT22;1441;48.886;8.728;2022-08-19T05:26:23;20.30;93.40
2867;DHT22;1441;48.886;8.728;2022-08-19T05:28:51;20.30;93.60
2867;DHT22;1441;48.886;8.728;2022-08-19T05:31:17;20.30;93.60
2867;DHT22;1441;48.886;8.728;2022-08-19T05:33:43;20.20;93.90
2867;DHT22;1441;48.886;8.728;2022-08-19T05:36:09;20.20;93.60
2867;DHT22;1441;48.886;8.728;2022-08-19T05:38:34;20.20;93.90
2867;DHT22;1441;48.886;8.728;2022-08-19T05:41:11;20.10;94.00
2867;DHT22;1441;48.886;8.728;2022-08-19T05:43:37;20.10;94.10
2867;DHT22;1441;48.886;8.728;2022-08-19T05:46:04;20.10;94.10
2867;DHT22;1441;48.886;8.728;2022-08-19T05:48:31;20.10;93.90
2867;DHT22;1441;48.886;8.728;2022-08-19T05:50:57;20.10;94.10
2867;DHT22;1441;48.886;8.728;2022-08-19T05:53:24;20.10;94.10
2867;DHT22;1441;48.886;8.728;2022-08-19T05:55:50;20.10;93.80
2867;DHT22;1441;48.886;8.728;2022-08-19T05:58:16;20.10;94.00
2867;DHT22;1441;48.886;8.728;2022-08-19T06:00:43;20.10;94.00
2867;DHT22;1441;48.886;8.728;2022-08-19T06:03:09;20.20;93.90
2867;DHT22;1441;48.886;8.728;2022-08-19T06:05:35;20.20;93.40
2867;DHT22;1441;48.886;8.728;2022-08-19T06:08:01;20.30;93.40
2867;DHT22;1441;48.886;8.728;2022-08-19T06:10:27;20.30;93.00
2867;DHT22;1441;48.886;8.728;2022-08-19T06:12:53;20.30;92.90
2867;DHT22;1441;48.886;8.728;2022-08-19T06:15:18;20.30;93.00
2867;DHT22;1441;48.886;8.728;2022-08-19T06:17:44;20.30;93.40
2867;DHT22;1441;48.886;8.728;2022-08-19T06:20:12;20.50;92.30
2867;DHT22;1441;48.886;8.728;2022-08-19T06:22:46;20.50;92.40
2867;DHT22;1441;48.886;8.728;2022-08-19T06:25:14;20.50;92.40
2867;DHT22;1441;48.886;8.728;2022-08-19T06:27:40;20.50;92.30
2867;DHT22;1441;48.886;8.728;2022-08-19T06:30:07;20.50;92.30
2867;DHT22;1441;48.886;8.728;2022-08-19T06:32:32;20.60;92.40
2867;DHT22;1441;48.886;8.728;2022-08-19T06:34:58;20.50;92.30
2867;DHT22;1441;48.886;8.728;2022-08-19T06:37:24;20.50;92.30
2867;DHT22;1441;48.886;8.728;2022-08-19T06:39:50;20.60;92.00
2867;DHT22;1441;48.886;8.728;2022-08-19T06:42:15;20.60;91.70
2867;DHT22;1441;48.886;8.728;2022-08-19T06:44:45;20.70;91.40
2867;DHT22;1441;48.886;8.728;2022-08-19T06:47:17;20.80;91.20
2867;DHT22;1441;48.886;8.728;2022-08-19T06:49:42;21.10;90.40
2867;DHT22;1441;48.886;8.728;2022-08-19T06:52:08;21.20;89.70
2867;DHT22;1441;48.886;8.728;2022-08-19T06:54:36;21.20;89.70
2867;DHT22;1441;48.886;8.728;2022-08-19T06:57:02;21.20;89.10
2867;DHT22;1441;48.886;8.728;2022-08-19T06:59:29;21.20;89.40
2867;DHT22;1441;48.886;8.728;2022-08-19T07:01:58;21.20;89.30
2867;DHT22;1441;48.886;8.728;2022-08-19T07:04:26;21.20;89.20
2867;DHT22;1441;48.886;8.728;2022-08-19T07:06:59;21.40;88.60
2867;DHT22;1441;48.886;8.728;2022-08-19T07:09:25;21.30;88.70
2867;DHT22;1441;48.886;8.728;2022-08-19T07:11:52;21.40;88.10
2867;DHT22;1441;48.886;8.728;2022-08-19T07:14:21;21.50;87.70
2867;DHT22;1441;48.886;8.728;2022-08-19T07:16:48;21.60;87.30
2867;DHT22;1441;48.886;8.728;2022-08-19T07:19:14;21.50;87.00
2867;DHT22;1441;48.886;8.728;2022-08-19T07:21:41;21.40;87.40
2867;DHT22;1441;48.886;8.728;2022-08-19T07:24:06;21.30;87.90
2867;DHT22;1441;48.886;8.728;2022-08-19T07:26:37;21.30;88.20
2867;DHT22;1441;48.886;8.728;2022-08-19T07:29:04;21.30;88.00
2867;DHT22;1441;48.886;8.728;2022-08-19T07:31:30;21.30;87.90
2867;DHT22;1441;48.886;8.728;2022-08-19T07:33:57;21.40;87.20
2867;DHT22;1441;48.886;8.728;2022-08-19T07:36:27;21.40;87.20
2867;DHT22;1441;48.886;8.728;2022-08-19T07:38:56;21.40;87.50
2867;DHT22;1441;48.886;8.728;2022-08-19T07:41:24;21.50;87.70
2867;DHT22;1441;48.886;8.728;2022-08-19T07:43:50;21.50;87.40
2867;DHT22;1441;48.886;8.728;2022-08-19T07:46:17;21.60;87.30
2867;DHT22;1441;48.886;8.728;2022-08-19T07:48:45;21.70;86.40
2867;DHT22;1441;48.886;8.728;2022-08-19T07:51:15;21.70;86.70
2867;DHT22;1441;48.886;8.728;2022-08-19T07:53:42;21.70;86.90
2867;DHT22;1441;48.886;8.728;2022-08-19T07:56:10;21.60;86.30
2867;DHT22;1441;48.886;8.728;2022-08-19T07:58:39;21.50;87.10
2867;DHT22;1441;48.886;8.728;2022-08-19T08:01:07;21.40;87.00
2867;DHT22;1441;48.886;8.728;2022-08-19T08:03:33;21.60;86.90
2867;DHT22;1441;48.886;8.728;2022-08-19T08:06:18;21.70;86.60
2867;DHT22;1441;48.886;8.728;2022-08-19T08:09:04;21.80;86.10
2867;DHT22;1441;48.886;8.728;2022-08-19T08:11:51;21.90;85.80
2867;DHT22;1441;48.886;8.728;2022-08-19T08:14:21;22.10;85.20
2867;DHT22;1441;48.886;8.728;2022-08-19T08:16:48;22.30;85.30
2867;DHT22;1441;48.886;8.728;2022-08-19T08:19:16;22.70;84.00
2867;DHT22;1441;48.886;8.728;2022-08-19T08:21:42;22.70;83.70
2867;DHT22;1441;48.886;8.728;2022-08-19T08:24:08;22.80;83.60
2867;DHT22;1441;48.886;8.728;2022-08-19T08:26:34;22.90;83.10
2867;DHT22;1441;48.886;8.728;2022-08-19T08:28:59;23.00;82.10
2867;DHT22;1441;48.886;8.728;2022-08-19T08:31:25;23.10;82.20
2867;DHT22;1441;48.886;8.728;2022-08-19T08:33:51;23.20;81.60
2867;DHT22;1441;48.886;8.728;2022-08-19T08:36:17;23.30;81.50
2867;DHT22;1441;48.886;8.728;2022-08-19T08:38:43;23.30;81.10
2867;DHT22;1441;48.886;8.728;2022-08-19T08:43:48;23.40;81.60
2867;DHT22;1441;48.886;8.728;2022-08-19T08:46:39;23.40;81.20
2867;DHT22;1441;48.886;8.728;2022-08-19T08:51:41;23.30;81.50
2867;DHT22;1441;48.886;8.728;2022-08-19T08:54:10;23.30;81.30
2867;DHT22;1441;48.886;8.728;2022-08-19T08:56:44;23.20;81.20
2867;DHT22;1441;48.886;8.728;2022-08-19T08:59:19;23.00;81.80
2867;DHT22;1441;48.886;8.728;2022-08-19T09:01:46;23.00;82.50
2867;DHT22;1441;48.886;8.728;2022-08-19T09:04:12;23.00;82.10
2867;DHT22;1441;48.886;8.728;2022-08-19T09:06:40;23.00;81.80
2867;DHT22;1441;48.886;8.728;2022-08-19T09:09:16;23.00;82.20
2867;DHT22;1441;48.886;8.728;2022-08-19T09:14:39;23.00;82.00
2867;DHT22;1441;48.886;8.728;2022-08-19T09:17:10;22.90;82.60
2867;DHT22;1441;48.886;8.728;2022-08-19T09:22:32;22.90;82.00
2867;DHT22;1441;48.886;8.728;2022-08-19T09:24:58;23.00;82.30
2867;DHT22;1441;48.886;8.728;2022-08-19T09:27:25;23.20;81.20
2867;DHT22;1441;48.886;8.728;2022-08-19T09:29:52;23.20;80.90
2867;DHT22;1441;48.886;8.728;2022-08-19T09:32:19;23.30;80.30
2867;DHT22;1441;48.886;8.728;2022-08-19T09:34:45;23.30;80.30
2867;DHT22;1441;48.886;8.728;2022-08-19T09:37:11;23.20;80.70
2867;DHT22;1441;48.886;8.728;2022-08-19T09:39:37;23.30;80.50
2867;DHT22;1441;48.886;8.728;2022-08-19T09:42:03;23.40;80.30
2867;DHT22;1441;48.886;8.728;2022-08-19T09:44:30;23.40;79.60
2867;DHT22;1441;48.886;8.728;2022-08-19T09:46:56;23.70;79.10
2867;DHT22;1441;48.886;8.728;2022-08-19T09:49:21;23.90;79.10
2867;DHT22;1441;48.886;8.728;2022-08-19T09:51:51;24.10;78.00
2867;DHT22;1441;48.886;8.728;2022-08-19T09:54:21;24.10;77.50
2867;DHT22;1441;48.886;8.728;2022-08-19T09:56:46;24.20;77.60
2867;DHT22;1441;48.886;8.728;2022-08-19T09:59:12;23.90;77.80
2867;DHT22;1441;48.886;8.728;2022-08-19T10:01:38;23.80;78.60
2867;DHT22;1441;48.886;8.728;2022-08-19T10:04:04;23.90;78.20
2867;DHT22;1441;48.886;8.728;2022-08-19T10:06:34;24.10;76.90
2867;DHT22;1441;48.886;8.728;2022-08-19T10:08:59;24.30;76.00
2867;DHT22;1441;48.886;8.728;2022-08-19T10:11:25;24.90;73.80
2867;DHT22;1441;48.886;8.728;2022-08-19T10:13:52;25.20;72.80
2867;DHT22;1441;48.886;8.728;2022-08-19T10:16:20;25.40;72.10
2867;DHT22;1441;48.886;8.728;2022-08-19T10:18:46;25.40;72.80
2867;DHT22;1441;48.886;8.728;2022-08-19T10:21:15;25.60;71.50
2867;DHT22;1441;48.886;8.728;2022-08-19T10:23:44;25.70;71.80
2867;DHT22;1441;48.886;8.728;2022-08-19T10:26:12;25.80;71.60
2867;DHT22;1441;48.886;8.728;2022-08-19T10:28:38;25.60;71.90
2867;DHT22;1441;48.886;8.728;2022-08-19T10:31:13;25.80;72.20
2867;DHT22;1441;48.886;8.728;2022-08-19T10:33:40;25.80;71.20
2867;DHT22;1441;48.886;8.728;2022-08-19T10:36:09;26.00;70.30
2867;DHT22;1441;48.886;8.728;2022-08-19T10:38:36;25.70;70.60
2867;DHT22;1441;48.886;8.728;2022-08-19T10:41:20;25.60;71.00
2867;DHT22;1441;48.886;8.728;2022-08-19T10:43:49;25.40;71.50
2867;DHT22;1441;48.886;8.728;2022-08-19T10:46:16;25.20;72.40
2867;DHT22;1441;48.886;8.728;2022-08-19T10:48:42;25.10;72.80
2867;DHT22;1441;48.886;8.728;2022-08-19T10:51:09;24.90;72.90
2867;DHT22;1441;48.886;8.728;2022-08-19T10:53:54;24.70;72.90
2867;DHT22;1441;48.886;8.728;2022-08-19T10:56:21;24.70;72.60
2867;DHT22;1441;48.886;8.728;2022-08-19T10:59:06;24.90;72.90
2867;DHT22;1441;48.886;8.728;2022-08-19T11:01:32;25.30;72.40
2867;DHT22;1441;48.886;8.728;2022-08-19T11:04:03;25.60;71.50
2867;DHT22;1441;48.886;8.728;2022-08-19T11:06:31;26.00;70.00
2867;DHT22;1441;48.886;8.728;2022-08-19T11:08:57;26.40;67.60
2867;DHT22;1441;48.886;8.728;2022-08-19T11:11:23;26.50;67.30
2867;DHT22;1441;48.886;8.728;2022-08-19T11:13:49;26.60;67.20
2867;DHT22;1441;48.886;8.728;2022-08-19T11:16:19;26.60;67.00
2867;DHT22;1441;48.886;8.728;2022-08-19T11:18:50;26.80;67.70
2867;DHT22;1441;48.886;8.728;2022-08-19T11:23:47;27.30;66.00
2867;DHT22;1441;48.886;8.728;2022-08-19T11:26:14;27.20;65.80
2867;DHT22;1441;48.886;8.728;2022-08-19T11:28:40;26.90;66.10
2867;DHT22;1441;48.886;8.728;2022-08-19T11:31:13;26.70;65.10
2867;DHT22;1441;48.886;8.728;2022-08-19T11:33:40;26.70;65.10
2867;DHT22;1441;48.886;8.728;2022-08-19T11:36:06;26.60;65.50
2867;DHT22;1441;48.886;8.728;2022-08-19T11:38:33;26.60;66.20
2867;DHT22;1441;48.886;8.728;2022-08-19T11:41:01;26.60;66.80
2867;DHT22;1441;48.886;8.728;2022-08-19T11:43:28;26.90;65.80
2867;DHT22;1441;48.886;8.728;2022-08-19T11:45:55;27.30;64.50
2867;DHT22;1441;48.886;8.728;2022-08-19T11:48:21;27.50;64.10
2867;DHT22;1441;48.886;8.728;2022-08-19T11:50:52;27.50;63.10
2867;DHT22;1441;48.886;8.728;2022-08-19T11:53:20;27.40;63.80
2867;DHT22;1441;48.886;8.728;2022-08-19T11:55:47;27.30;63.60
2867;DHT22;1441;48.886;8.728;2022-08-19T11:58:15;27.30;63.80
2867;DHT22;1441;48.886;8.728;2022-08-19T12:00:44;27.20;63.80
2867;DHT22;1441;48.886;8.728;2022-08-19T12:03:11;27.30;63.40
2867;DHT22;1441;48.886;8.728;2022-08-19T12:05:38;27.30;63.30
2867;DHT22;1441;48.886;8.728;2022-08-19T12:08:05;27.40;63.30
2867;DHT22;1441;48.886;8.728;2022-08-19T12:10:32;27.30;62.10
2867;DHT22;1441;48.886;8.728;2022-08-19T12:12:58;27.30;61.60
2867;DHT22;1441;48.886;8.728;2022-08-19T12:15:23;27.50;62.10
2867;DHT22;1441;48.886;8.728;2022-08-19T12:17:49;27.60;62.10
2867;DHT22;1441;48.886;8.728;2022-08-19T12:20:15;27.70;61.00
2867;DHT22;1441;48.886;8.728;2022-08-19T12:22:42;27.80;60.60
2867;DHT22;1441;48.886;8.728;2022-08-19T12:25:10;28.00;61.00
2867;DHT22;1441;48.886;8.728;2022-08-19T12:27:38;27.90;60.20
2867;DHT22;1441;48.886;8.728;2022-08-19T12:30:05;28.00;60.90
2867;DHT22;1441;48.886;8.728;2022-08-19T12:32:32;28.00;60.50
2867;DHT22;1441;48.886;8.728;2022-08-19T12:34:57;28.00;60.90
2867;DHT22;1441;48.886;8.728;2022-08-19T12:37:23;27.90;60.70
2867;DHT22;1441;48.886;8.728;2022-08-19T12:39:49;28.00;60.70
2867;DHT22;1441;48.886;8.728;2022-08-19T12:42:15;27.90;60.60
2867;DHT22;1441;48.886;8.728;2022-08-19T12:44:42;27.90;60.70
2867;DHT22;1441;48.886;8.728;2022-08-19T12:47:10;27.90;59.70
2867;DHT22;1441;48.886;8.728;2022-08-19T12:49:37;27.70;60.10
2867;DHT22;1441;48.886;8.728;2022-08-19T12:52:05;27.70;61.00
2867;DHT22;1441;48.886;8.728;2022-08-19T12:54:32;27.70;61.40
2867;DHT22;1441;48.886;8.728;2022-08-19T12:56:58;27.70;62.40
2867;DHT22;1441;48.886;8.728;2022-08-19T12:59:25;27.70;63.40
2867;DHT22;1441;48.886;8.728;2022-08-19T13:01:51;27.60;64.10
2867;DHT22;1441;48.886;8.728;2022-08-19T13:04:16;27.80;63.60
2867;DHT22;1441;48.886;8.728;2022-08-19T13:06:42;28.00;62.90
2867;DHT22;1441;48.886;8.728;2022-08-19T13:09:08;28.20;62.90
2867;DHT22;1441;48.886;8.728;2022-08-19T13:11:34;28.50;62.20
2867;DHT22;1441;48.886;8.728;2022-08-19T13:14:01;28.50;62.20
2867;DHT22;1441;48.886;8.728;2022-08-19T13:16:28;28.30;62.10
2867;DHT22;1441;48.886;8.728;2022-08-19T13:18:55;28.40;62.30
2867;DHT22;1441;48.886;8.728;2022-08-19T13:21:24;27.90;63.50
2867;DHT22;1441;48.886;8.728;2022-08-19T13:23:51;27.90;63.20
2867;DHT22;1441;48.886;8.728;2022-08-19T13:26:18;28.20;62.20
2867;DHT22;1441;48.886;8.728;2022-08-19T13:28:44;28.40;61.70
2867;DHT22;1441;48.886;8.728;2022-08-19T13:31:31;28.50;61.90
2867;DHT22;1441;48.886;8.728;2022-08-19T13:34:17;28.70;61.50
2867;DHT22;1441;48.886;8.728;2022-08-19T13:36:42;28.60;61.40
2867;DHT22;1441;48.886;8.728;2022-08-19T13:39:09;28.30;62.50
2867;DHT22;1441;48.886;8.728;2022-08-19T13:41:35;28.10;62.80
2867;DHT22;1441;48.886;8.728;2022-08-19T13:44:02;28.10;62.40
2867;DHT22;1441;48.886;8.728;2022-08-19T13:46:28;28.50;61.90
2867;DHT22;1441;48.886;8.728;2022-08-19T13:48:54;28.80;60.90
2867;DHT22;1441;48.886;8.728;2022-08-19T13:51:20;29.10;60.00
2867;DHT22;1441;48.886;8.728;2022-08-19T13:53:45;29.20;60.00
2867;DHT22;1441;48.886;8.728;2022-08-19T13:56:17;29.10;60.50
2867;DHT22;1441;48.886;8.728;2022-08-19T13:58:45;29.00;60.00
2867;DHT22;1441;48.886;8.728;2022-08-19T14:01:11;28.70;60.00
2867;DHT22;1441;48.886;8.728;2022-08-19T14:03:37;28.30;61.40
2867;DHT22;1441;48.886;8.728;2022-08-19T14:06:03;27.80;62.30
2867;DHT22;1441;48.886;8.728;2022-08-19T14:08:29;27.50;63.30
2867;DHT22;1441;48.886;8.728;2022-08-19T14:10:58;27.30;63.70
2867;DHT22;1441;48.886;8.728;2022-08-19T14:13:23;27.10;64.20
2867;DHT22;1441;48.886;8.728;2022-08-19T14:15:50;27.00;64.80
2867;DHT22;1441;48.886;8.728;2022-08-19T14:18:17;27.00;64.20
2867;DHT22;1441;48.886;8.728;2022-08-19T14:20:43;26.90;64.20
2867;DHT22;1441;48.886;8.728;2022-08-19T14:23:09;26.80;64.00
2867;DHT22;1441;48.886;8.728;2022-08-19T14:25:34;26.60;64.70
2867;DHT22;1441;48.886;8.728;2022-08-19T14:28:00;26.60;64.90
2867;DHT22;1441;48.886;8.728;2022-08-19T14:30:29;26.60;64.90
2867;DHT22;1441;48.886;8.728;2022-08-19T14:32:59;26.70;64.70
2867;DHT22;1441;48.886;8.728;2022-08-19T14:35:26;26.80;65.10
2867;DHT22;1441;48.886;8.728;2022-08-19T14:37:53;26.90;64.10
2867;DHT22;1441;48.886;8.728;2022-08-19T14:40:26;26.90;64.30
2867;DHT22;1441;48.886;8.728;2022-08-19T14:42:53;27.20;63.10
2867;DHT22;1441;48.886;8.728;2022-08-19T14:45:26;27.60;62.40
2867;DHT22;1441;48.886;8.728;2022-08-19T14:47:52;27.80;61.70
2867;DHT22;1441;48.886;8.728;2022-08-19T14:50:18;27.80;61.80
2867;DHT22;1441;48.886;8.728;2022-08-19T14:52:46;27.90;62.10
2867;DHT22;1441;48.886;8.728;2022-08-19T14:55:14;27.90;62.60
2867;DHT22;1441;48.886;8.728;2022-08-19T14:57:43;27.70;62.00
2867;DHT22;1441;48.886;8.728;2022-08-19T15:00:10;27.70;62.30
2867;DHT22;1441;48.886;8.728;2022-08-19T15:02:40;27.60;61.70
2867;DHT22;1441;48.886;8.728;2022-08-19T15:05:06;27.70;61.30
2867;DHT22;1441;48.886;8.728;2022-08-19T15:07:32;27.70;61.90
2867;DHT22;1441;48.886;8.728;2022-08-19T15:09:58;27.70;60.70
2867;DHT22;1441;48.886;8.728;2022-08-19T15:12:23;27.70;60.90
2867;DHT22;1441;48.886;8.728;2022-08-19T15:14:49;27.70;62.10
2867;DHT22;1441;48.886;8.728;2022-08-19T15:17:18;27.70;60.30
2867;DHT22;1441;48.886;8.728;2022-08-19T15:19:44;27.70;60.60
2867;DHT22;1441;48.886;8.728;2022-08-19T15:22:11;27.70;60.00
2867;DHT22;1441;48.886;8.728;2022-08-19T15:24:36;27.80;59.00
2867;DHT22;1441;48.886;8.728;2022-08-19T15:27:04;27.90;58.70
2867;DHT22;1441;48.886;8.728;2022-08-19T15:29:30;27.80;59.90
2867;DHT22;1441;48.886;8.728;2022-08-19T15:31:57;27.80;60.00
2867;DHT22;1441;48.886;8.728;2022-08-19T15:34:25;27.70;59.70
2867;DHT22;1441;48.886;8.728;2022-08-19T15:36:51;27.70;59.50
2867;DHT22;1441;48.886;8.728;2022-08-19T15:39:17;27.60;60.00
2867;DHT22;1441;48.886;8.728;2022-08-19T15:41:44;27.60;60.30
2867;DHT22;1441;48.886;8.728;2022-08-19T15:44:13;27.50;59.70
2867;DHT22;1441;48.886;8.728;2022-08-19T15:46:40;27.50;59.30
2867;DHT22;1441;48.886;8.728;2022-08-19T15:49:07;27.60;58.30
2867;DHT22;1441;48.886;8.728;2022-08-19T15:51:34;27.50;58.90
2867;DHT22;1441;48.886;8.728;2022-08-19T15:54:02;27.30;59.10
2867;DHT22;1441;48.886;8.728;2022-08-19T15:56:28;27.20;59.10
2867;DHT22;1441;48.886;8.728;2022-08-19T15:59:16;27.10;60.50
2867;DHT22;1441;48.886;8.728;2022-08-19T16:02:00;27.00;59.80
2867;DHT22;1441;48.886;8.728;2022-08-19T16:04:44;27.00;60.90
2867;DHT22;1441;48.886;8.728;2022-08-19T16:07:29;26.80;61.40
2867;DHT22;1441;48.886;8.728;2022-08-19T16:09:54;26.80;61.90
2867;DHT22;1441;48.886;8.728;2022-08-19T16:12:20;26.70;61.80
2867;DHT22;1441;48.886;8.728;2022-08-19T16:14:46;26.70;62.20
2867;DHT22;1441;48.886;8.728;2022-08-19T16:17:13;26.60;62.40
2867;DHT22;1441;48.886;8.728;2022-08-19T16:19:39;26.50;62.50
2867;DHT22;1441;48.886;8.728;2022-08-19T16:22:05;26.60;62.70
2867;DHT22;1441;48.886;8.728;2022-08-19T16:24:31;26.60;62.20